createdAt,value
2018-04-11T00:01:43.195Z,57.33
2018-04-11T00:04:10.997Z,57.32
2018-04-11T00:06:38.548Z,57.54
2018-04-11T00:09:06.122Z,57.52
2018-04-11T00:11:33.638Z,57.55
2018-04-11T00:14:01.166Z,57.43
2018-04-11T00:16:28.675Z,57.51
2018-04-11T00:18:56.228Z,57.51
2018-04-11T00:21:23.761Z,57.58
2018-04-11T00:23:51.281Z,57.64
2018-04-11T00:26:18.854Z,57.69
2018-04-11T00:28:46.372Z,57.78
2018-04-11T00:31:13.922Z,58.22
2018-04-11T00:33:41.440Z,58.36
2018-04-11T00:36:09.289Z,58.53
2018-04-11T00:38:36.813Z,58.85
2018-04-11T00:41:04.391Z,58.88
2018-04-11T00:43:31.931Z,59.00
2018-04-11T00:45:59.493Z,59.15
2018-04-11T00:48:27.025Z,59.30
2018-04-11T00:50:54.570Z,59.67
2018-04-11T00:53:26.729Z,59.66
2018-04-11T00:55:54.278Z,59.72
2018-04-11T00:58:21.822Z,59.94
2018-04-11T01:00:49.384Z,60.04
2018-04-11T01:03:16.931Z,60.02
2018-04-11T01:05:44.851Z,60.10
2018-04-11T01:08:12.394Z,60.38
2018-04-11T01:10:39.950Z,60.30
2018-04-11T01:13:07.520Z,60.75
2018-04-11T01:15:35.058Z,61.02
2018-04-11T01:18:02.562Z,61.12
2018-04-11T01:20:30.120Z,61.30
2018-04-11T01:22:57.665Z,61.14
2018-04-11T01:25:25.240Z,60.97
2018-04-11T01:27:52.786Z,61.05
2018-04-11T01:30:20.306Z,61.02
2018-04-11T01:32:47.945Z,61.09
2018-04-11T01:35:15.466Z,61.33
2018-04-11T01:37:43.056Z,61.21
2018-04-11T01:40:10.616Z,61.57
2018-04-11T01:42:38.143Z,61.70
2018-04-11T01:45:05.699Z,61.67
2018-04-11T01:47:33.226Z,61.69
2018-04-11T01:50:00.732Z,61.87
2018-04-11T01:52:28.314Z,61.77
2018-04-11T01:54:55.905Z,61.62
2018-04-11T01:57:23.614Z,61.63
2018-04-11T01:59:51.129Z,61.63
2018-04-11T02:02:18.664Z,61.80
2018-04-11T02:04:46.201Z,62.02
2018-04-11T02:07:14.052Z,62.15
2018-04-11T02:09:41.656Z,62.22
2018-04-11T02:12:09.153Z,62.44
2018-04-11T02:14:36.678Z,62.47
2018-04-11T02:17:04.196Z,62.62
2018-04-11T02:19:31.714Z,62.39
2018-04-11T02:21:59.269Z,62.62
2018-04-11T02:24:26.778Z,62.87
2018-04-11T02:26:54.391Z,62.75
2018-04-11T02:29:21.933Z,62.90
2018-04-11T02:31:49.448Z,62.85
2018-04-11T02:34:16.998Z,62.79
2018-04-11T02:36:44.519Z,62.96
2018-04-11T02:39:12.070Z,62.92
2018-04-11T02:41:39.634Z,62.93
2018-04-11T02:44:07.147Z,62.71
2018-04-11T02:46:34.731Z,62.61
2018-04-11T02:49:02.320Z,62.90
2018-04-11T02:51:29.845Z,62.69
2018-04-11T02:53:57.374Z,62.56
2018-04-11T02:56:24.887Z,62.86
2018-04-11T02:58:52.463Z,63.05
2018-04-11T03:01:19.985Z,63.32
2018-04-11T03:03:47.839Z,64.73
2018-04-11T03:06:15.465Z,64.97
2018-04-11T03:08:42.991Z,65.32
2018-04-11T03:11:10.533Z,65.39
2018-04-11T03:13:38.071Z,65.41
2018-04-11T03:16:05.597Z,65.67
2018-04-11T03:18:33.125Z,65.48
2018-04-11T03:21:00.810Z,65.57
2018-04-11T03:23:28.396Z,65.62
2018-04-11T03:25:55.924Z,65.54
2018-04-11T03:28:23.452Z,65.41
2018-04-11T03:30:50.976Z,65.44
2018-04-11T03:33:18.497Z,65.54
2018-04-11T03:35:46.065Z,65.56
2018-04-11T03:38:13.583Z,65.46
2018-04-11T03:40:41.112Z,65.27
2018-04-11T03:43:08.636Z,65.43
2018-04-11T03:45:36.160Z,65.54
2018-04-11T03:48:03.705Z,65.60
2018-04-11T03:50:31.531Z,65.64
2018-04-11T03:52:59.119Z,65.64
2018-04-11T03:55:26.649Z,65.70
2018-04-11T03:57:54.201Z,65.29
2018-04-11T04:00:21.832Z,65.29
2018-04-11T04:02:49.370Z,65.22
2018-04-11T04:05:16.904Z,65.20
2018-04-11T04:07:44.499Z,65.26
2018-04-11T04:10:12.043Z,65.50
2018-04-11T04:12:39.841Z,65.46
2018-04-11T04:15:19.072Z,65.49
2018-04-11T04:17:58.651Z,65.68
2018-04-11T04:20:37.101Z,65.72
2018-04-11T04:23:04.930Z,65.94
2018-04-11T04:25:32.488Z,65.84
2018-04-11T04:28:00.033Z,66.12
2018-04-11T04:30:27.621Z,66.34
2018-04-11T04:32:55.265Z,66.68
2018-04-11T04:35:23.112Z,67.12
2018-04-11T04:37:50.617Z,67.15
2018-04-11T04:40:18.146Z,67.09
2018-04-11T04:42:45.725Z,67.49
2018-04-11T04:45:13.248Z,66.87
2018-04-11T04:47:40.802Z,66.91
2018-04-11T04:50:08.600Z,67.04
2018-04-11T04:52:36.149Z,67.52
2018-04-11T04:55:03.813Z,67.61
2018-04-11T04:57:31.367Z,67.36
2018-04-11T04:59:58.983Z,67.29
2018-04-11T05:02:26.511Z,67.31
2018-04-11T05:04:54.073Z,66.65
2018-04-11T05:07:21.634Z,66.67
2018-04-11T05:09:49.163Z,66.37
2018-04-11T05:12:16.721Z,66.49
2018-04-11T05:14:44.439Z,67.24
2018-04-11T05:17:11.942Z,67.17
2018-04-11T05:19:39.520Z,67.32
2018-04-11T05:22:07.041Z,67.16
2018-04-11T05:24:34.606Z,67.08
2018-04-11T05:27:02.403Z,66.63
2018-04-11T05:29:29.926Z,66.25
2018-04-11T05:31:57.539Z,66.51
2018-04-11T05:34:25.144Z,66.37
2018-04-11T05:36:52.974Z,66.33
2018-04-11T05:39:20.497Z,66.87
2018-04-11T05:41:48.105Z,66.71
2018-04-11T05:44:15.662Z,67.08
2018-04-11T05:46:43.201Z,67.34
2018-04-11T05:49:10.756Z,68.34
2018-04-11T05:51:38.321Z,70.64
2018-04-11T05:54:05.877Z,70.77
2018-04-11T05:56:33.443Z,71.42
2018-04-11T05:59:00.945Z,71.25
2018-04-11T06:01:28.504Z,71.30
2018-04-11T06:03:56.019Z,70.94
2018-04-11T06:06:23.541Z,70.03
2018-04-11T06:08:51.080Z,68.83
2018-04-11T06:11:18.903Z,68.24
2018-04-11T06:13:46.459Z,66.73
2018-04-11T06:16:14.044Z,66.32
2018-04-11T06:18:41.582Z,64.93
2018-04-11T06:21:09.899Z,65.94
2018-04-11T06:23:37.415Z,65.88
2018-04-11T06:26:04.975Z,65.92
2018-04-11T06:28:32.517Z,65.49
2018-04-11T06:31:00.377Z,65.25
2018-04-11T06:33:29.164Z,64.47
2018-04-11T06:35:56.798Z,65.01
2018-04-11T06:38:24.543Z,64.56
2018-04-11T06:40:52.916Z,64.99
2018-04-11T06:43:21.011Z,64.01
2018-04-11T06:45:48.779Z,63.43
2018-04-11T06:48:16.631Z,61.90
2018-04-11T06:50:44.395Z,61.16
2018-04-11T06:53:12.173Z,59.99
2018-04-11T06:55:39.805Z,60.06
2018-04-11T06:58:07.384Z,59.15
2018-04-11T07:00:35.243Z,58.16
2018-04-11T07:03:03.118Z,57.62
2018-04-11T07:05:30.974Z,57.29
2018-04-11T07:07:58.765Z,56.15
2018-04-11T07:10:26.298Z,56.20
2018-04-11T07:12:53.813Z,56.26
2018-04-11T07:15:21.356Z,55.38
2018-04-11T07:17:48.872Z,54.52
2018-04-11T07:20:16.393Z,53.44
2018-04-11T07:22:43.932Z,54.08
2018-04-11T07:25:11.442Z,54.29
2018-04-11T07:27:38.990Z,54.24
2018-04-11T07:30:06.553Z,53.36
2018-04-11T07:32:34.080Z,52.76
2018-04-11T07:35:01.620Z,54.01
2018-04-11T07:37:29.464Z,53.77
2018-04-11T07:39:58.478Z,53.48
2018-04-11T07:42:26.010Z,53.79
2018-04-11T07:44:53.597Z,53.38
2018-04-11T07:47:21.191Z,53.45
2018-04-11T07:49:48.715Z,52.95
2018-04-11T07:52:16.613Z,52.95
2018-04-11T07:54:44.555Z,52.44
2018-04-11T07:57:12.116Z,52.20
2018-04-11T07:59:41.888Z,52.05
2018-04-11T08:02:09.426Z,51.46
2018-04-11T08:04:37.353Z,50.78
2018-04-11T08:07:04.887Z,49.65
2018-04-11T08:09:32.443Z,49.29
2018-04-11T08:12:00.036Z,48.31
2018-04-11T08:14:27.629Z,47.84
2018-04-11T08:16:55.911Z,47.75
2018-04-11T08:19:23.454Z,46.74
2018-04-11T08:21:51.122Z,45.61
2018-04-11T08:24:18.754Z,45.71
2018-04-11T08:26:46.428Z,45.51
2018-04-11T08:29:13.973Z,44.79
2018-04-11T08:31:41.642Z,45.66
2018-04-11T08:34:09.196Z,46.49
2018-04-11T08:36:36.858Z,46.11
2018-04-11T08:39:04.737Z,44.68
2018-04-11T08:41:32.408Z,42.67
2018-04-11T08:44:00.224Z,43.46
2018-04-11T08:46:27.956Z,42.59
2018-04-11T08:48:55.582Z,42.86
2018-04-11T08:51:23.184Z,41.34
2018-04-11T08:53:50.775Z,40.56
2018-04-11T08:56:18.326Z,40.25
2018-04-11T08:58:45.850Z,39.90
2018-04-11T09:01:13.427Z,39.13
2018-04-11T09:03:40.949Z,38.84
2018-04-11T09:06:08.735Z,38.84
2018-04-11T09:08:36.297Z,38.83
2018-04-11T09:11:03.945Z,37.89
2018-04-11T09:13:31.606Z,37.28
2018-04-11T09:15:59.298Z,38.68
2018-04-11T09:18:26.870Z,40.51
2018-04-11T09:20:54.394Z,40.09
2018-04-11T09:23:22.253Z,39.63
2018-04-11T09:25:49.785Z,38.66
2018-04-11T09:28:17.373Z,38.40
2018-04-11T09:30:44.898Z,38.88
2018-04-11T09:33:12.494Z,40.62
2018-04-11T09:35:40.038Z,40.16
2018-04-11T09:38:07.587Z,38.91
2018-04-11T09:40:35.149Z,39.79
2018-04-11T09:43:02.785Z,38.99
2018-04-11T09:45:30.322Z,38.19
2018-04-11T09:47:57.896Z,37.74
2018-04-11T09:50:25.433Z,37.25
2018-04-11T09:52:53.016Z,37.86
2018-04-11T09:55:20.585Z,36.42
2018-04-11T09:57:48.121Z,39.43
2018-04-11T10:00:15.980Z,39.11
2018-04-11T10:02:43.551Z,38.54
2018-04-11T10:05:11.094Z,38.47
2018-04-11T10:07:38.617Z,38.89
2018-04-11T10:10:06.155Z,39.14
2018-04-11T10:12:33.731Z,39.47
2018-04-11T10:15:01.299Z,39.35
2018-04-11T10:17:28.889Z,38.46
2018-04-11T10:19:56.430Z,36.85
2018-04-11T10:22:23.980Z,37.02
2018-04-11T10:24:51.531Z,37.19
2018-04-11T10:27:19.297Z,36.10
2018-04-11T10:29:46.856Z,36.76
2018-04-11T10:32:14.415Z,35.29
2018-04-11T10:34:42.083Z,35.82
2018-04-11T10:37:09.737Z,35.16
2018-04-11T10:39:37.286Z,35.15
2018-04-11T10:42:04.814Z,35.58
2018-04-11T10:44:33.137Z,35.38
2018-04-11T10:47:00.708Z,36.97
2018-04-11T10:49:28.291Z,36.36
2018-04-11T10:51:55.917Z,35.54
2018-04-11T10:54:23.446Z,34.15
2018-04-11T10:56:51.053Z,34.43
2018-04-11T10:59:18.729Z,33.51
2018-04-11T11:01:46.262Z,33.54
2018-04-11T11:04:13.824Z,33.46
2018-04-11T11:06:41.408Z,35.07
2018-04-11T11:09:09.357Z,32.88
2018-04-11T11:11:36.894Z,30.82
2018-04-11T11:14:04.559Z,29.10
2018-04-11T11:16:36.923Z,32.42
2018-04-11T11:19:04.788Z,36.56
2018-04-11T11:21:32.318Z,39.23
2018-04-11T11:23:59.876Z,37.70
2018-04-11T11:26:27.469Z,36.83
2018-04-11T11:28:55.063Z,35.09
2018-04-11T11:31:22.627Z,33.00
2018-04-11T11:33:50.207Z,31.30
2018-04-11T11:36:17.773Z,30.84
2018-04-11T11:38:46.501Z,29.00
2018-04-11T11:41:14.128Z,27.57
2018-04-11T11:43:41.660Z,27.46
2018-04-11T11:46:09.303Z,27.27
2018-04-11T11:48:36.843Z,26.04
2018-04-11T11:51:04.353Z,25.47
2018-04-11T11:53:31.882Z,24.46
2018-04-11T11:55:59.418Z,22.59
2018-04-11T11:58:26.956Z,23.29
2018-04-11T12:00:54.536Z,21.76
2018-04-11T12:03:22.235Z,21.38
2018-04-11T12:05:49.832Z,23.14
2018-04-11T12:08:17.500Z,26.62
2018-04-11T12:10:45.090Z,24.02
2018-04-11T12:13:12.614Z,23.09
2018-04-11T12:15:40.154Z,22.21
2018-04-11T12:18:07.699Z,22.22
2018-04-11T12:20:35.324Z,20.81
2018-04-11T12:23:02.873Z,19.22
2018-04-11T12:25:30.442Z,20.50
2018-04-11T12:27:58.028Z,22.16
2018-04-11T12:30:25.596Z,24.66
2018-04-11T12:32:53.143Z,26.13
2018-04-11T12:35:20.738Z,22.72
2018-04-11T12:37:48.339Z,22.93
2018-04-11T12:40:16.131Z,24.48
2018-04-11T12:42:43.696Z,23.71
2018-04-11T12:45:11.493Z,22.35
2018-04-11T12:47:39.023Z,22.59
2018-04-11T12:50:06.584Z,22.92
2018-04-11T12:52:34.446Z,24.08
2018-04-11T12:55:02.319Z,25.37
2018-04-11T12:57:29.914Z,24.01
2018-04-11T12:59:57.434Z,25.58
2018-04-11T13:02:25.003Z,30.13
2018-04-11T13:04:52.554Z,29.50
2018-04-11T13:07:20.112Z,27.59
2018-04-11T13:09:47.632Z,25.98
2018-04-11T13:12:15.196Z,26.88
2018-04-11T13:14:42.755Z,28.65
2018-04-11T13:17:10.283Z,28.81
2018-04-11T13:19:38.081Z,28.40
2018-04-11T13:22:05.655Z,29.26
2018-04-11T13:24:33.403Z,30.18
2018-04-11T13:27:11.360Z,30.34
2018-04-11T13:29:39.328Z,33.12
2018-04-11T13:32:06.872Z,32.23
2018-04-11T13:34:34.462Z,31.80
2018-04-11T13:37:02.094Z,32.48
2018-04-11T13:39:29.645Z,31.59
2018-04-11T13:41:57.219Z,32.96
2018-04-11T13:44:24.771Z,32.96
2018-04-11T13:46:52.330Z,34.41
2018-04-11T13:49:19.941Z,34.92
2018-04-11T13:51:47.482Z,35.98
2018-04-11T13:54:15.009Z,36.75
2018-04-11T13:56:42.573Z,36.99
2018-04-11T13:59:10.093Z,36.76
2018-04-11T14:01:37.921Z,35.96
2018-04-11T14:04:05.623Z,36.09
2018-04-11T14:06:33.168Z,35.52
2018-04-11T14:09:00.778Z,38.16
2018-04-11T14:11:28.580Z,38.45
2018-04-11T14:13:56.533Z,37.71
2018-04-11T14:16:24.068Z,39.66
2018-04-11T14:18:51.624Z,39.12
2018-04-11T14:21:19.184Z,38.53
2018-04-11T14:23:46.986Z,39.73
2018-04-11T14:26:14.522Z,38.36
2018-04-11T14:28:42.057Z,39.60
2018-04-11T14:31:09.582Z,39.32
2018-04-11T14:33:37.131Z,38.05
2018-04-11T14:36:04.674Z,39.13
2018-04-11T14:38:32.196Z,38.25
2018-04-11T14:40:59.799Z,37.76
2018-04-11T14:43:27.564Z,39.33
2018-04-11T14:45:58.786Z,38.53
2018-04-11T14:48:26.888Z,36.71
2018-04-11T14:50:54.497Z,37.04
2018-04-11T14:53:22.675Z,37.33
2018-04-11T14:55:50.209Z,38.63
2018-04-11T14:58:17.783Z,39.77
2018-04-11T15:00:45.446Z,40.96
2018-04-11T15:03:13.098Z,41.39
2018-04-11T15:05:40.911Z,41.72
2018-04-11T15:08:08.430Z,41.94
2018-04-11T15:10:36.091Z,41.59
2018-04-11T15:13:03.632Z,40.48
2018-04-11T15:15:31.294Z,39.95
2018-04-11T15:17:59.114Z,39.83
2018-04-11T15:20:26.634Z,41.60
2018-04-11T15:22:54.227Z,42.48
2018-04-11T15:25:25.750Z,42.45
2018-04-11T15:27:53.446Z,43.10
2018-04-11T15:30:21.124Z,43.27
2018-04-11T15:32:48.677Z,44.67
2018-04-11T15:35:16.200Z,45.72
2018-04-11T15:37:43.715Z,45.95
2018-04-11T15:40:11.293Z,46.09
2018-04-11T15:42:38.869Z,46.36
2018-04-11T15:45:07.422Z,46.20
2018-04-11T15:47:35.144Z,46.63
2018-04-11T15:50:02.687Z,46.88
2018-04-11T15:52:30.237Z,46.74
2018-04-11T15:54:57.850Z,47.73
2018-04-11T15:57:27.799Z,47.63
2018-04-11T15:59:55.347Z,47.30
2018-04-11T16:02:23.342Z,48.35
2018-04-11T16:04:51.220Z,48.45
2018-04-11T16:07:18.773Z,48.63
2018-04-11T16:09:46.299Z,49.61
2018-04-11T16:12:13.926Z,49.64
2018-04-11T16:14:41.451Z,49.73
2018-04-11T16:17:09.601Z,50.60
2018-04-11T16:19:37.120Z,50.67
2018-04-11T16:22:04.645Z,50.25
2018-04-11T16:24:33.282Z,50.72
2018-04-11T16:27:01.812Z,50.60
2018-04-11T16:29:29.615Z,50.66
2018-04-11T16:31:57.168Z,50.85
2018-04-11T16:34:24.730Z,50.86
2018-04-11T16:36:52.287Z,51.08
2018-04-11T16:39:19.867Z,50.80
2018-04-11T16:41:47.410Z,50.70
2018-04-11T16:44:14.940Z,50.45
2018-04-11T16:46:42.469Z,50.47
2018-04-11T16:49:10.032Z,51.23
2018-04-11T16:51:37.609Z,51.43
2018-04-11T16:54:05.206Z,51.49
2018-04-11T16:56:32.736Z,52.04
2018-04-11T16:59:00.290Z,52.03
2018-04-11T17:01:27.849Z,52.37
2018-04-11T17:03:55.444Z,52.91
2018-04-11T17:06:23.054Z,53.66
2018-04-11T17:08:51.006Z,53.97
2018-04-11T17:11:18.583Z,53.67
2018-04-11T17:13:46.228Z,54.06
2018-04-11T17:16:14.886Z,53.63
2018-04-11T17:18:43.299Z,53.98
2018-04-11T17:21:23.207Z,54.01
2018-04-11T17:24:02.619Z,54.30
2018-04-11T17:26:42.118Z,54.80
2018-04-11T17:32:16.118Z,55.04
2018-04-11T17:34:43.680Z,55.23
2018-04-11T17:37:11.207Z,55.03
2018-04-11T17:39:38.728Z,55.11
2018-04-11T17:42:06.256Z,55.55
2018-04-11T17:44:33.844Z,56.02
2018-04-11T17:47:01.395Z,56.04
2018-04-11T17:49:28.915Z,56.14
2018-04-11T17:51:56.492Z,56.68
2018-04-11T17:54:24.074Z,57.03
2018-04-11T17:56:51.657Z,57.24
2018-04-11T17:59:19.222Z,57.24
2018-04-11T18:01:46.762Z,57.28
2018-04-11T18:04:14.330Z,57.20
2018-04-11T18:06:41.990Z,57.20
2018-04-11T18:09:09.565Z,57.24
2018-04-11T18:11:37.143Z,57.71
2018-04-11T18:14:04.835Z,58.04
2018-04-11T18:16:32.405Z,58.60
2018-04-11T18:18:59.959Z,58.44
2018-04-11T18:21:27.516Z,58.74
2018-04-11T18:23:55.507Z,58.94
2018-04-11T18:26:23.069Z,58.87
2018-04-11T18:28:50.610Z,58.96
2018-04-11T18:31:18.171Z,59.34
2018-04-11T18:33:45.797Z,59.37
2018-04-11T18:36:13.516Z,59.28
2018-04-11T18:38:41.069Z,59.97
2018-04-11T18:41:08.686Z,60.08
2018-04-11T18:43:36.918Z,60.02
2018-04-11T18:46:04.464Z,59.67
2018-04-11T18:48:32.243Z,59.43
2018-04-11T18:50:59.786Z,59.46
2018-04-11T18:53:27.437Z,59.63
2018-04-11T18:55:54.954Z,60.48
2018-04-11T18:58:22.540Z,60.31
2018-04-11T19:00:50.114Z,60.08
2018-04-11T19:03:17.646Z,60.96
2018-04-11T19:05:45.207Z,60.59
2018-04-11T19:08:12.790Z,60.58
2018-04-11T19:10:40.398Z,60.58
2018-04-11T19:13:08.006Z,60.67
2018-04-11T19:15:35.619Z,60.55
2018-04-11T19:18:03.182Z,60.66
2018-04-11T19:20:30.746Z,61.29
2018-04-11T19:22:59.648Z,61.46
2018-04-11T19:25:27.184Z,61.53
2018-04-11T19:27:54.763Z,61.24
2018-04-11T19:30:22.330Z,61.12
2018-04-11T19:32:49.861Z,61.23
2018-04-11T19:35:17.405Z,61.71
2018-04-11T19:37:44.954Z,61.46
2018-04-11T19:40:12.601Z,61.55
2018-04-11T19:42:40.168Z,61.53
2018-04-11T19:45:08.183Z,61.60
2018-04-11T19:47:35.768Z,61.63
2018-04-11T19:50:03.435Z,61.67
2018-04-11T19:52:30.999Z,61.82
2018-04-11T19:54:58.581Z,62.23
2018-04-11T19:57:26.250Z,62.16
2018-04-11T19:59:54.063Z,62.12
2018-04-11T20:02:21.711Z,62.16
2018-04-11T20:04:49.260Z,62.24
2018-04-11T20:07:16.911Z,62.26
2018-04-11T20:09:44.519Z,62.56
2018-04-11T20:12:12.084Z,62.79
2018-04-11T20:14:39.731Z,62.85
2018-04-11T20:17:07.345Z,63.08
2018-04-11T20:19:35.015Z,63.04
2018-04-11T20:22:02.585Z,63.16
2018-04-11T20:24:30.387Z,63.09
2018-04-11T20:26:57.985Z,63.04
2018-04-11T20:29:25.560Z,63.61
2018-04-11T20:31:53.929Z,63.62
2018-04-11T20:34:21.604Z,63.64
2018-04-11T20:36:49.523Z,63.67
2018-04-11T20:39:18.174Z,63.88
2018-04-11T20:41:45.696Z,63.81
2018-04-11T20:44:13.230Z,63.90
2018-04-11T20:46:40.822Z,63.78
2018-04-11T20:49:08.419Z,63.58
2018-04-11T20:51:36.079Z,63.78
2018-04-11T20:54:03.704Z,63.69
2018-04-11T20:56:31.385Z,63.56
2018-04-11T20:58:58.971Z,63.65
2018-04-11T21:01:27.428Z,63.89
2018-04-11T21:03:55.004Z,64.11
2018-04-11T21:06:22.688Z,64.08
2018-04-11T21:08:50.910Z,63.97
2018-04-11T21:11:18.507Z,64.01
2018-04-11T21:13:46.033Z,64.40
2018-04-11T21:16:13.608Z,64.31
2018-04-11T21:18:41.199Z,64.18
2018-04-11T21:21:08.712Z,64.30
2018-04-11T21:23:36.338Z,64.17
2018-04-11T21:26:03.933Z,64.29
2018-04-11T21:28:31.519Z,64.25
2018-04-11T21:30:59.078Z,64.31
2018-04-11T21:33:26.717Z,64.29
2018-04-11T21:35:54.312Z,64.25
2018-04-11T21:38:21.839Z,64.51
2018-04-11T21:43:16.212Z,64.55
2018-04-11T21:45:43.760Z,64.68
2018-04-11T21:48:11.300Z,64.70
2018-04-11T21:50:38.807Z,64.56
2018-04-11T21:53:06.426Z,64.67
2018-04-11T21:55:34.106Z,64.86
2018-04-11T21:58:01.624Z,64.78
2018-04-11T22:00:29.230Z,64.80
2018-04-11T22:02:56.810Z,64.66
2018-04-11T22:05:24.969Z,64.69
2018-04-11T22:07:52.512Z,64.63
2018-04-11T22:10:20.042Z,64.76
2018-04-11T22:12:47.632Z,65.17
2018-04-11T22:15:15.214Z,65.01
2018-04-11T22:17:42.789Z,65.18
2018-04-11T22:20:10.359Z,65.13
2018-04-11T22:22:37.873Z,65.08
2018-04-11T22:25:05.782Z,65.17
2018-04-11T22:27:33.327Z,65.19
2018-04-11T22:30:00.891Z,65.51
2018-04-11T22:32:28.590Z,65.62
2018-04-11T22:34:56.968Z,65.89
2018-04-11T22:37:24.572Z,66.18
2018-04-11T22:39:52.136Z,66.11
2018-04-11T22:42:19.726Z,66.31
2018-04-11T22:44:47.266Z,66.34
2018-04-11T22:47:14.783Z,66.35
2018-04-11T22:49:42.357Z,66.44
2018-04-11T22:52:09.892Z,66.09
2018-04-11T22:54:37.456Z,66.27
2018-04-11T22:57:05.619Z,66.22
2018-04-11T22:59:33.167Z,66.30
2018-04-11T23:02:00.812Z,66.18
2018-04-11T23:04:28.341Z,66.26
2018-04-11T23:06:58.082Z,66.50
2018-04-11T23:09:25.634Z,66.70
2018-04-11T23:11:53.161Z,66.67
2018-04-11T23:14:20.854Z,67.16
2018-04-11T23:16:48.370Z,66.78
2018-04-11T23:19:16.204Z,66.80
2018-04-11T23:21:44.071Z,66.89
2018-04-11T23:24:11.623Z,66.69
2018-04-11T23:26:39.167Z,66.96
2018-04-11T23:29:06.697Z,66.83
2018-04-11T23:31:34.251Z,66.88
2018-04-11T23:34:02.066Z,66.65
2018-04-11T23:36:29.851Z,66.61
2018-04-11T23:38:57.409Z,67.17
2018-04-11T23:41:24.996Z,67.18
2018-04-11T23:43:52.536Z,67.08
2018-04-11T23:46:20.059Z,67.13
2018-04-11T23:48:47.626Z,67.22
2018-04-11T23:51:15.174Z,67.10
2018-04-11T23:53:42.698Z,66.92
2018-04-11T23:56:10.268Z,66.98
2018-04-11T23:58:37.864Z,67.35
